Aviation Digital Data Service (ADDS)

Output produced by TAFs form (1130 UTC 19 January 2018)
found at http://www.aviationweather.gov/adds/tafs/
 
RJFM 191100Z 29006KT 9999 FEW030 10/03 Q1018
TAF RJFM 191105Z 1912/2018 27008KT 9999 FEW030 
     BECMG 2000/2003 07005KT 
     BECMG 2009/2012 28007KT